Terminal Aerodrome Forecast
Issued by NWS

Home | Current Version | Previous Version | Text Only | Print | Product List | Glossary On
Versions: 1 2 3 4 5 6 7 8 9 10 11 12 13 14 15
000
FTUS42 KMHX 281730
TAFOAJ
TAF
KOAJ 281730Z 2818/2918 17006KT P6SM VCTS SCT030CB BKN040
     FM290300 VRB04KT P6SM SCT120
     FM290800 VRB03KT 4SM BR BKN020
     FM291300 VRB03KT P6SM BKN100
      AMD LTD TO CLD VIS AND WIND=

USA.gov is the U.S. government's official web portal to all federal, state and local government web resources and services.